createdAt,value
2018-11-27T00:00:02.607Z,0.00
2018-11-27T00:01:02.651Z,0.00
2018-11-27T00:02:02.615Z,0.00
2018-11-27T00:03:02.628Z,0.00
2018-11-27T00:04:02.634Z,0.00
2018-11-27T00:05:02.579Z,0.00
2018-11-27T00:06:02.560Z,0.00
2018-11-27T00:07:02.551Z,0.00
2018-11-27T00:08:02.545Z,0.00
2018-11-27T00:09:02.546Z,0.00
2018-11-27T00:10:02.531Z,0.00
2018-11-27T00:11:02.517Z,0.00
2018-11-27T00:12:02.571Z,0.00
2018-11-27T00:13:02.504Z,0.00
2018-11-27T00:14:02.496Z,0.00
2018-11-27T00:15:02.511Z,0.00
2018-11-27T00:16:02.476Z,0.00
2018-11-27T00:17:02.478Z,0.00
2018-11-27T00:18:02.460Z,0.00
2018-11-27T00:19:02.492Z,0.00
2018-11-27T00:20:02.498Z,0.00
2018-11-27T00:21:02.434Z,0.00
2018-11-27T00:22:02.449Z,0.00
2018-11-27T00:23:02.466Z,0.00
2018-11-27T00:24:02.423Z,0.00
2018-11-27T00:25:02.457Z,0.00
2018-11-27T00:26:02.453Z,0.00
2018-11-27T00:27:02.392Z,0.00
2018-11-27T00:28:02.386Z,0.00
2018-11-27T00:29:02.400Z,0.00
2018-11-27T00:30:02.393Z,0.00
2018-11-27T00:31:02.360Z,0.00
2018-11-27T00:32:02.385Z,0.00
2018-11-27T00:33:10.659Z,0.00
2018-11-27T00:34:55.333Z,0.00
2018-11-27T00:35:55.498Z,0.00
2018-11-27T00:37:48.691Z,0.00
2018-11-27T00:38:48.728Z,0.00
2018-11-27T00:39:50.423Z,0.00
2018-11-27T00:40:49.213Z,0.00
2018-11-27T00:41:48.697Z,0.00
2018-11-27T00:42:48.876Z,0.00
2018-11-27T00:43:50.664Z,0.00
2018-11-27T00:44:49.373Z,0.00
2018-11-27T00:45:48.917Z,0.00
2018-11-27T00:46:49.534Z,0.00
2018-11-27T00:48:12.972Z,0.00
2018-11-27T00:49:00.777Z,0.00
2018-11-27T00:50:48.106Z,0.00
2018-11-27T00:51:52.536Z,0.00
2018-11-27T00:52:42.653Z,0.00
2018-11-27T00:53:45.610Z,0.00
2018-11-27T00:54:42.846Z,0.00
2018-11-27T00:55:49.925Z,0.00
2018-11-27T00:56:44.734Z,0.00
2018-11-27T00:57:43.146Z,0.00
2018-11-27T00:58:43.674Z,0.00
2018-11-27T01:01:08.900Z,0.00
2018-11-27T01:02:08.110Z,0.00
2018-11-27T01:03:05.238Z,0.00
2018-11-27T01:04:05.032Z,0.00
2018-11-27T01:05:05.029Z,0.00
2018-11-27T01:07:48.630Z,0.00
2018-11-27T01:08:45.472Z,0.00
2018-11-27T01:09:48.034Z,0.00
2018-11-27T01:10:46.188Z,0.00
2018-11-27T01:11:45.608Z,0.00
2018-11-27T01:13:07.715Z,0.00
2018-11-27T01:15:13.720Z,0.00
2018-11-27T01:16:07.558Z,0.00
2018-11-27T01:17:07.581Z,0.00
2018-11-27T01:18:07.606Z,0.00
2018-11-27T01:19:07.681Z,0.00
2018-11-27T01:20:07.430Z,0.00
2018-11-27T01:21:08.444Z,0.00
2018-11-27T01:22:07.457Z,0.00
2018-11-27T01:23:07.452Z,0.00
2018-11-27T01:24:07.327Z,0.00
2018-11-27T01:25:07.682Z,0.00
2018-11-27T01:26:07.554Z,0.00
2018-11-27T01:27:09.596Z,0.00
2018-11-27T01:28:07.426Z,0.00
2018-11-27T01:29:07.400Z,0.00
2018-11-27T01:30:07.444Z,0.00
2018-11-27T01:31:22.370Z,0.00
2018-11-27T01:32:07.523Z,0.00
2018-11-27T01:33:15.466Z,0.00
2018-11-27T01:34:08.403Z,0.00
2018-11-27T01:35:08.222Z,0.00
2018-11-27T01:36:07.547Z,0.00
2018-11-27T01:37:09.436Z,0.00
2018-11-27T01:38:07.378Z,0.00
2018-11-27T01:39:07.448Z,0.00
2018-11-27T01:40:07.669Z,0.00
2018-11-27T01:41:07.771Z,0.00
2018-11-27T01:42:07.399Z,0.00
2018-11-27T01:43:07.462Z,0.00
2018-11-27T01:44:07.444Z,0.00
2018-11-27T01:45:07.434Z,0.00
2018-11-27T01:46:08.649Z,0.00
2018-11-27T01:47:14.407Z,0.00
2018-11-27T01:48:09.852Z,0.00
2018-11-27T01:49:07.545Z,0.00
2018-11-27T01:50:07.463Z,0.00
2018-11-27T01:51:08.868Z,0.00
2018-11-27T01:52:07.500Z,0.00
2018-11-27T01:53:15.848Z,0.00
2018-11-27T01:54:13.860Z,0.00
2018-11-27T01:55:07.392Z,0.00
2018-11-27T01:56:07.332Z,0.00
2018-11-27T01:57:07.347Z,0.00
2018-11-27T01:58:07.250Z,0.00
2018-11-27T01:59:09.456Z,0.00
2018-11-27T02:00:07.271Z,0.00
2018-11-27T02:01:07.151Z,0.00
2018-11-27T02:02:07.611Z,0.00
2018-11-27T02:03:09.769Z,0.00
2018-11-27T02:04:07.405Z,0.00
2018-11-27T02:05:07.141Z,0.00
2018-11-27T02:06:07.313Z,0.00
2018-11-27T02:07:07.113Z,0.00
2018-11-27T02:08:07.791Z,0.00
2018-11-27T02:09:07.204Z,0.00
2018-11-27T02:10:07.045Z,0.00
2018-11-27T02:11:07.367Z,0.00
2018-11-27T02:12:09.319Z,0.00
2018-11-27T02:13:07.090Z,0.00
2018-11-27T02:14:07.279Z,0.00
2018-11-27T02:15:08.136Z,0.00
2018-11-27T02:16:07.222Z,0.00
2018-11-27T02:17:07.211Z,0.00
2018-11-27T02:18:07.059Z,0.00
2018-11-27T02:19:14.699Z,0.00
2018-11-27T02:20:11.892Z,0.00
2018-11-27T02:21:06.935Z,0.00
2018-11-27T02:22:06.876Z,0.00
2018-11-27T02:23:08.034Z,0.00
2018-11-27T02:24:07.776Z,0.00
2018-11-27T02:25:15.086Z,0.00
2018-11-27T02:26:15.815Z,0.00
2018-11-27T02:29:50.856Z,0.00
2018-11-27T02:30:44.613Z,0.00
2018-11-27T02:31:44.551Z,0.00
2018-11-27T02:32:44.523Z,0.00
2018-11-27T02:33:44.645Z,0.00
2018-11-27T02:34:44.749Z,0.00
2018-11-27T02:35:47.423Z,0.00
2018-11-27T02:36:45.015Z,0.00
2018-11-27T02:37:44.512Z,0.00
2018-11-27T02:38:44.664Z,0.00
2018-11-27T02:39:44.484Z,0.00
2018-11-27T02:40:45.340Z,0.00
2018-11-27T02:41:44.539Z,0.00
2018-11-27T02:42:44.460Z,0.00
2018-11-27T02:43:44.505Z,0.00
2018-11-27T02:44:44.502Z,0.00
2018-11-27T02:45:44.559Z,0.00
2018-11-27T02:46:44.650Z,0.00
2018-11-27T02:47:44.501Z,0.00
2018-11-27T02:48:44.571Z,0.00
2018-11-27T02:49:44.499Z,0.00
2018-11-27T02:50:44.497Z,0.00
2018-11-27T02:51:44.412Z,0.00
2018-11-27T02:52:44.397Z,0.00
2018-11-27T02:53:44.499Z,0.00
2018-11-27T02:54:44.445Z,0.00
2018-11-27T02:55:44.394Z,0.00
2018-11-27T02:56:46.940Z,0.00
2018-11-27T02:57:44.461Z,0.00
2018-11-27T02:58:44.429Z,0.00
2018-11-27T02:59:44.461Z,0.00
2018-11-27T03:00:44.397Z,0.00
2018-11-27T03:01:44.435Z,0.00
2018-11-27T03:02:44.340Z,0.00
2018-11-27T03:03:44.307Z,0.00
2018-11-27T03:04:44.416Z,0.00
2018-11-27T03:05:44.302Z,0.00
2018-11-27T03:06:44.475Z,0.00
2018-11-27T03:07:45.046Z,0.00
2018-11-27T03:08:44.389Z,0.00
2018-11-27T03:09:45.922Z,0.00
2018-11-27T03:10:44.407Z,0.00
2018-11-27T03:11:44.991Z,0.00
2018-11-27T03:12:44.227Z,0.00
2018-11-27T03:13:46.263Z,0.00
2018-11-27T03:14:44.849Z,0.00
2018-11-27T03:15:44.188Z,0.00
2018-11-27T03:16:44.176Z,0.00
2018-11-27T03:17:44.348Z,0.00
2018-11-27T03:18:44.264Z,0.00
2018-11-27T03:19:44.241Z,0.00
2018-11-27T03:21:08.972Z,0.00
2018-11-27T03:21:44.271Z,0.00
2018-11-27T03:22:44.339Z,0.00
2018-11-27T03:23:44.243Z,0.00
2018-11-27T03:24:44.161Z,0.00
2018-11-27T03:25:44.891Z,0.00
2018-11-27T03:26:44.134Z,0.00
2018-11-27T03:27:44.194Z,0.00
2018-11-27T03:28:52.930Z,0.00
2018-11-27T03:29:44.024Z,0.00
2018-11-27T03:30:44.828Z,0.00
2018-11-27T03:31:44.135Z,0.00
2018-11-27T03:32:46.057Z,0.00
2018-11-27T03:33:47.115Z,0.00
2018-11-27T03:34:44.120Z,0.00
2018-11-27T03:35:44.904Z,0.00
2018-11-27T03:36:44.145Z,0.00
2018-11-27T03:37:44.059Z,0.00
2018-11-27T03:38:43.971Z,0.00
2018-11-27T03:39:43.982Z,0.00
2018-11-27T03:40:44.106Z,0.00
2018-11-27T03:41:43.996Z,0.00
2018-11-27T03:42:43.995Z,0.00
2018-11-27T03:43:44.049Z,0.00
2018-11-27T03:46:17.092Z,0.00
2018-11-27T03:47:37.629Z,0.00
2018-11-27T03:48:17.074Z,0.00
2018-11-27T03:49:16.505Z,0.00
2018-11-27T03:50:16.483Z,0.00
2018-11-27T03:51:16.689Z,0.00
2018-11-27T03:52:17.274Z,0.00
2018-11-27T03:53:16.629Z,0.00
2018-11-27T03:54:17.295Z,0.00
2018-11-27T03:55:16.578Z,0.00
2018-11-27T03:56:16.671Z,0.00
2018-11-27T03:57:16.709Z,0.00
2018-11-27T03:58:31.213Z,0.00
2018-11-27T03:59:16.459Z,0.00
2018-11-27T04:00:16.480Z,0.00
2018-11-27T04:01:16.480Z,0.00
2018-11-27T04:02:16.415Z,0.00
2018-11-27T04:03:16.501Z,0.00
2018-11-27T04:04:16.550Z,0.00
2018-11-27T04:05:16.472Z,0.00
2018-11-27T04:06:16.692Z,0.00
2018-11-27T04:07:16.893Z,0.00
2018-11-27T04:08:18.186Z,0.00
2018-11-27T04:09:16.510Z,0.00
2018-11-27T04:10:16.560Z,0.00
2018-11-27T04:11:16.355Z,0.00
2018-11-27T04:12:16.447Z,0.00
2018-11-27T04:13:17.352Z,0.00
2018-11-27T04:14:19.170Z,0.00
2018-11-27T04:15:16.374Z,0.00
2018-11-27T04:16:18.257Z,0.00
2018-11-27T04:17:33.362Z,0.00
2018-11-27T04:18:24.131Z,0.00
2018-11-27T04:20:12.603Z,0.00
2018-11-27T04:21:09.760Z,0.00
2018-11-27T04:22:09.560Z,0.00
2018-11-27T04:23:09.537Z,0.00
2018-11-27T04:24:09.687Z,0.00
2018-11-27T04:25:09.616Z,0.00
2018-11-27T04:26:09.651Z,0.00
2018-11-27T04:27:09.722Z,0.00
2018-11-27T04:28:09.610Z,0.00
2018-11-27T04:29:09.706Z,0.00
2018-11-27T04:30:09.569Z,0.00
2018-11-27T04:31:09.475Z,0.00
2018-11-27T04:32:09.469Z,0.00
2018-11-27T04:33:09.466Z,0.00
2018-11-27T04:34:09.448Z,0.00
2018-11-27T04:35:09.440Z,0.00
2018-11-27T04:36:09.522Z,0.00
2018-11-27T04:37:09.551Z,0.00
2018-11-27T04:38:09.426Z,0.00
2018-11-27T04:39:09.586Z,0.00
2018-11-27T04:40:09.681Z,0.00
2018-11-27T04:41:11.285Z,0.00
2018-11-27T04:42:11.362Z,0.00
2018-11-27T04:43:09.522Z,0.00
2018-11-27T04:44:11.223Z,0.00
2018-11-27T04:45:09.729Z,0.00
2018-11-27T04:46:09.506Z,0.00
2018-11-27T04:47:11.221Z,0.00
2018-11-27T04:48:12.170Z,0.00
2018-11-27T04:49:09.547Z,0.00
2018-11-27T04:50:10.506Z,0.00
2018-11-27T04:51:10.604Z,0.00
2018-11-27T04:52:09.498Z,0.00
2018-11-27T04:53:11.163Z,0.00
2018-11-27T04:54:09.538Z,0.00
2018-11-27T04:55:12.509Z,0.00
2018-11-27T04:56:10.635Z,0.00
2018-11-27T04:57:10.642Z,0.00
2018-11-27T04:58:10.593Z,0.00
2018-11-27T04:59:09.601Z,0.00
2018-11-27T05:00:10.440Z,0.00
2018-11-27T05:02:41.751Z,0.00
2018-11-27T05:03:36.323Z,0.00
2018-11-27T05:04:34.233Z,0.00
2018-11-27T05:05:34.371Z,0.00
2018-11-27T05:06:34.206Z,0.00
2018-11-27T05:07:34.213Z,0.00
2018-11-27T05:08:34.187Z,0.00
2018-11-27T05:09:34.181Z,0.00
2018-11-27T05:10:34.168Z,0.00
2018-11-27T05:11:34.160Z,0.00
2018-11-27T05:13:13.798Z,0.00
2018-11-27T05:14:13.744Z,0.00
2018-11-27T05:16:07.102Z,0.00
2018-11-27T05:17:07.051Z,0.00
2018-11-27T05:19:00.573Z,0.00
2018-11-27T05:20:00.558Z,0.00
2018-11-27T05:21:53.365Z,0.00
2018-11-27T05:22:53.331Z,0.00
2018-11-27T05:24:46.868Z,0.00
2018-11-27T05:25:46.946Z,0.00
2018-11-27T05:27:39.788Z,0.00
2018-11-27T05:28:40.749Z,0.00
2018-11-27T05:30:33.412Z,0.00
2018-11-27T05:31:33.380Z,0.00
2018-11-27T05:33:26.110Z,0.00
2018-11-27T05:34:26.011Z,0.00
2018-11-27T05:36:19.478Z,0.00
2018-11-27T05:37:19.639Z,0.00
2018-11-27T05:38:19.423Z,0.00
2018-11-27T05:39:19.468Z,0.00
2018-11-27T05:40:19.353Z,0.00
2018-11-27T05:41:19.338Z,0.00
2018-11-27T05:42:19.986Z,0.00
2018-11-27T05:43:19.317Z,0.00
2018-11-27T05:44:19.335Z,0.00
2018-11-27T05:45:19.297Z,0.00
2018-11-27T05:46:19.286Z,0.00
2018-11-27T05:47:19.280Z,0.00
2018-11-27T05:48:19.275Z,0.00
2018-11-27T05:49:19.294Z,0.00
2018-11-27T05:50:20.136Z,0.00
2018-11-27T05:51:19.325Z,0.00
2018-11-27T05:52:19.387Z,0.00
2018-11-27T05:53:19.284Z,0.00
2018-11-27T05:54:19.218Z,0.00
2018-11-27T05:55:19.212Z,0.00
2018-11-27T05:56:19.201Z,0.00
2018-11-27T05:57:19.194Z,0.00
2018-11-27T05:58:19.188Z,0.00
2018-11-27T05:59:19.171Z,0.00
2018-11-27T06:00:19.167Z,0.00
2018-11-27T06:01:19.156Z,0.00
2018-11-27T06:02:19.169Z,0.00
2018-11-27T06:03:19.145Z,0.00
2018-11-27T06:04:19.128Z,0.00
2018-11-27T06:05:19.142Z,0.00
2018-11-27T06:06:19.139Z,0.00
2018-11-27T06:07:19.102Z,0.00
2018-11-27T06:08:19.090Z,0.00
2018-11-27T06:09:19.099Z,0.00
2018-11-27T06:10:19.072Z,0.00
2018-11-27T06:11:19.074Z,0.00
2018-11-27T06:12:19.057Z,0.00
2018-11-27T06:13:19.048Z,0.00
2018-11-27T06:14:19.040Z,0.00
2018-11-27T06:15:19.039Z,0.00
2018-11-27T06:16:19.018Z,0.00
2018-11-27T06:17:19.010Z,0.00
2018-11-27T06:18:19.003Z,0.00
2018-11-27T06:19:18.995Z,0.00
2018-11-27T06:20:18.983Z,0.00
2018-11-27T06:21:18.973Z,0.00
2018-11-27T06:22:18.974Z,0.00
2018-11-27T06:23:18.959Z,0.00
2018-11-27T06:24:18.948Z,0.00
2018-11-27T06:25:19.041Z,0.00
2018-11-27T06:26:18.944Z,0.00
2018-11-27T06:27:18.919Z,0.00
2018-11-27T06:28:18.910Z,0.00
2018-11-27T06:29:18.903Z,0.00
2018-11-27T06:30:18.892Z,0.00
2018-11-27T06:31:18.886Z,0.00
2018-11-27T06:32:21.385Z,0.00
2018-11-27T06:33:18.865Z,0.00
2018-11-27T06:34:18.864Z,0.00
2018-11-27T06:35:18.847Z,0.00
2018-11-27T06:36:18.844Z,0.00
2018-11-27T06:37:18.858Z,0.00
2018-11-27T06:38:18.820Z,0.00
2018-11-27T06:39:18.813Z,0.00
2018-11-27T06:40:18.802Z,0.00
2018-11-27T06:41:18.794Z,0.00
2018-11-27T06:42:18.782Z,0.00
2018-11-27T06:43:18.805Z,0.00
2018-11-27T06:44:18.764Z,0.00
2018-11-27T06:45:18.756Z,0.00
2018-11-27T06:46:18.763Z,0.00
2018-11-27T06:47:18.740Z,0.00
2018-11-27T06:48:18.730Z,0.00
2018-11-27T06:49:18.722Z,0.00
2018-11-27T06:50:18.724Z,0.00
2018-11-27T06:51:18.708Z,0.00
2018-11-27T06:52:18.693Z,0.00
2018-11-27T06:53:18.686Z,0.00
2018-11-27T06:54:18.700Z,0.00
2018-11-27T06:55:18.666Z,0.00
2018-11-27T06:56:18.732Z,0.00
2018-11-27T06:57:18.651Z,0.00
2018-11-27T06:58:18.643Z,0.00
2018-11-27T06:59:18.634Z,0.00
2018-11-27T07:00:18.633Z,0.00
2018-11-27T07:01:18.611Z,0.00
2018-11-27T07:02:18.602Z,0.00
2018-11-27T07:03:18.594Z,0.00
2018-11-27T07:04:18.614Z,0.00
2018-11-27T07:05:18.577Z,0.00
2018-11-27T07:06:18.569Z,0.00
2018-11-27T07:07:18.559Z,0.00
2018-11-27T07:08:18.554Z,0.00
2018-11-27T07:09:18.540Z,0.00
2018-11-27T07:10:18.531Z,0.00
2018-11-27T07:11:18.552Z,0.00
2018-11-27T07:12:18.516Z,0.00
2018-11-27T07:13:18.510Z,0.00
2018-11-27T07:14:18.492Z,0.00
2018-11-27T07:15:18.488Z,0.00
2018-11-27T07:16:18.478Z,0.00
2018-11-27T07:17:18.468Z,0.00
2018-11-27T07:18:18.483Z,0.00
2018-11-27T07:19:18.450Z,0.00
2018-11-27T07:20:18.440Z,0.00
2018-11-27T07:21:18.434Z,0.00
2018-11-27T07:22:18.426Z,0.00
2018-11-27T07:23:18.416Z,0.00
2018-11-27T07:24:18.408Z,0.00
2018-11-27T07:25:18.404Z,0.00
2018-11-27T07:26:18.389Z,0.00
2018-11-27T07:27:18.378Z,0.00
2018-11-27T07:28:18.372Z,0.00
2018-11-27T07:29:18.403Z,0.00
2018-11-27T07:30:18.357Z,0.00
2018-11-27T07:31:18.369Z,0.00
2018-11-27T07:32:18.337Z,0.00
2018-11-27T07:33:18.327Z,0.00
2018-11-27T07:34:18.319Z,0.00
2018-11-27T07:35:18.309Z,0.00
2018-11-27T07:36:18.304Z,0.00
2018-11-27T07:37:18.285Z,0.00
2018-11-27T07:38:18.278Z,0.00
2018-11-27T07:39:18.301Z,0.00
2018-11-27T07:40:18.264Z,0.00
2018-11-27T07:41:18.266Z,0.00
2018-11-27T07:42:18.259Z,0.00
2018-11-27T07:43:18.238Z,0.00
2018-11-27T07:44:18.224Z,0.00
2018-11-27T07:45:18.239Z,0.00
2018-11-27T07:46:18.208Z,0.00
2018-11-27T07:47:18.199Z,0.00
2018-11-27T07:48:18.196Z,5.63
2018-11-27T07:49:18.178Z,5.63
2018-11-27T07:50:18.173Z,5.63
2018-11-27T07:51:18.165Z,5.63
2018-11-27T07:52:18.188Z,5.63
2018-11-27T07:53:18.174Z,5.63
2018-11-27T07:54:18.205Z,5.63
2018-11-27T07:55:18.129Z,5.63
2018-11-27T07:56:18.123Z,5.63
2018-11-27T07:57:18.112Z,5.63
2018-11-27T07:58:18.106Z,5.63
2018-11-27T07:59:18.096Z,5.63
2018-11-27T08:00:18.088Z,5.63
2018-11-27T08:01:18.076Z,5.63
2018-11-27T08:02:18.067Z,5.63
2018-11-27T08:03:18.060Z,5.63
2018-11-27T08:04:18.049Z,5.63
2018-11-27T08:05:18.044Z,5.63
2018-11-27T08:06:18.035Z,5.63
2018-11-27T08:07:18.048Z,5.63
2018-11-27T08:08:18.018Z,5.63
2018-11-27T08:09:18.006Z,5.63
2018-11-27T08:10:18.004Z,5.63
2018-11-27T08:11:17.996Z,11.25
2018-11-27T08:12:17.988Z,11.25
2018-11-27T08:13:17.977Z,11.25
2018-11-27T08:14:17.968Z,11.25
2018-11-27T08:15:18.903Z,11.25
2018-11-27T08:16:17.949Z,11.25
2018-11-27T08:17:17.942Z,11.25
2018-11-27T08:18:17.932Z,11.25
2018-11-27T08:19:17.922Z,11.25
2018-11-27T08:20:17.913Z,11.25
2018-11-27T08:21:17.941Z,11.25
2018-11-27T08:22:17.897Z,11.25
2018-11-27T08:23:17.894Z,11.25
2018-11-27T08:24:17.884Z,11.25
2018-11-27T08:25:17.871Z,11.25
2018-11-27T08:26:17.859Z,11.25
2018-11-27T08:27:17.850Z,11.25
2018-11-27T08:28:17.845Z,11.25
2018-11-27T08:29:17.833Z,11.25
2018-11-27T08:30:17.823Z,16.88
2018-11-27T08:31:17.855Z,16.88
2018-11-27T08:32:17.810Z,16.88
2018-11-27T08:33:17.807Z,16.88
2018-11-27T08:34:17.796Z,16.88
2018-11-27T08:35:17.785Z,16.88
2018-11-27T08:36:17.777Z,16.88
2018-11-27T08:37:17.771Z,16.88
2018-11-27T08:38:17.756Z,22.50
2018-11-27T08:39:17.757Z,22.50
2018-11-27T08:40:17.738Z,22.50
2018-11-27T08:41:17.728Z,22.50
2018-11-27T08:42:17.721Z,22.50
2018-11-27T08:43:17.713Z,22.50
2018-11-27T08:44:17.703Z,22.50
2018-11-27T08:45:17.711Z,22.50
2018-11-27T08:46:17.691Z,28.13
2018-11-27T08:47:17.683Z,28.13
2018-11-27T08:48:17.672Z,28.13
2018-11-27T08:49:17.663Z,28.13
2018-11-27T08:50:17.652Z,28.13
2018-11-27T08:51:17.650Z,28.13
2018-11-27T08:52:17.637Z,28.13
2018-11-27T08:53:17.628Z,33.75
2018-11-27T08:54:17.618Z,28.13
2018-11-27T08:55:17.615Z,33.75
2018-11-27T08:56:17.598Z,33.75
2018-11-27T08:57:17.593Z,33.75
2018-11-27T08:58:17.586Z,33.75
2018-11-27T08:59:17.576Z,39.38
2018-11-27T09:00:17.567Z,39.38
2018-11-27T09:01:17.560Z,39.38
2018-11-27T09:02:17.571Z,39.38
2018-11-27T09:03:17.542Z,39.38
2018-11-27T09:04:17.575Z,39.38
2018-11-27T09:05:17.525Z,39.38
2018-11-27T09:06:17.518Z,45.00
2018-11-27T09:07:17.510Z,45.00
2018-11-27T09:08:17.500Z,39.38
2018-11-27T09:09:17.503Z,39.38
2018-11-27T09:10:17.477Z,45.00
2018-11-27T09:11:17.474Z,45.00
2018-11-27T09:12:17.462Z,45.00
2018-11-27T09:13:17.685Z,45.00
2018-11-27T09:14:17.449Z,50.63
2018-11-27T09:15:17.487Z,50.63
2018-11-27T09:16:17.431Z,50.63
2018-11-27T09:17:17.417Z,50.63
2018-11-27T09:18:17.415Z,50.63
2018-11-27T09:19:17.427Z,50.63
2018-11-27T09:20:17.393Z,56.25
2018-11-27T09:21:17.388Z,61.88
2018-11-27T09:22:17.379Z,61.88
2018-11-27T09:23:17.377Z,56.25
2018-11-27T09:24:17.362Z,56.25
2018-11-27T09:25:17.355Z,50.63
2018-11-27T09:26:17.380Z,50.63
2018-11-27T09:27:17.340Z,50.63
2018-11-27T09:28:17.330Z,45.00
2018-11-27T09:29:17.321Z,45.00
2018-11-27T09:30:17.335Z,50.63
2018-11-27T09:31:17.306Z,50.63
2018-11-27T09:32:17.304Z,50.63
2018-11-27T09:33:17.290Z,50.63
2018-11-27T09:34:17.285Z,50.63
2018-11-27T09:35:17.271Z,50.63
2018-11-27T09:36:17.264Z,45.00
2018-11-27T09:37:17.260Z,45.00
2018-11-27T09:38:17.247Z,39.38
2018-11-27T09:39:17.251Z,39.38
2018-11-27T09:40:17.236Z,39.38
2018-11-27T09:41:17.223Z,50.63
2018-11-27T09:42:17.230Z,50.63
2018-11-27T09:43:17.210Z,50.63
2018-11-27T09:44:17.201Z,50.63
2018-11-27T09:45:17.219Z,50.63
2018-11-27T09:46:17.190Z,56.25
2018-11-27T09:47:17.178Z,50.63
2018-11-27T09:48:17.169Z,50.63
2018-11-27T09:49:17.170Z,56.25
2018-11-27T09:50:17.179Z,50.63
2018-11-27T09:51:17.144Z,50.63
2018-11-27T09:52:17.162Z,50.63
2018-11-27T09:53:17.129Z,50.63
2018-11-27T09:54:17.120Z,50.63
2018-11-27T09:55:17.112Z,61.88
2018-11-27T09:56:17.112Z,61.88
2018-11-27T09:57:17.096Z,61.88
2018-11-27T09:58:17.091Z,61.88
2018-11-27T09:59:17.080Z,61.88
2018-11-27T10:00:17.072Z,61.88
2018-11-27T10:01:17.068Z,61.88
2018-11-27T10:02:17.061Z,61.88
2018-11-27T10:03:17.051Z,56.25
2018-11-27T10:04:17.075Z,56.25
2018-11-27T10:05:17.034Z,56.25
2018-11-27T10:06:17.029Z,56.25
2018-11-27T10:07:17.016Z,56.25
2018-11-27T10:08:17.037Z,56.25
2018-11-27T10:09:17.025Z,50.63
2018-11-27T10:10:17.051Z,50.63
2018-11-27T10:11:16.983Z,50.63
2018-11-27T10:12:16.983Z,56.25
2018-11-27T10:13:16.967Z,56.25
2018-11-27T10:14:16.965Z,61.88
2018-11-27T10:15:16.982Z,61.88
2018-11-27T10:16:16.969Z,56.25
2018-11-27T10:17:16.935Z,50.63
2018-11-27T10:18:16.925Z,45.00
2018-11-27T10:19:16.949Z,45.00
2018-11-27T10:20:17.030Z,39.38
2018-11-27T10:21:16.986Z,39.38
2018-11-27T10:22:16.899Z,39.38
2018-11-27T10:23:17.414Z,45.00
2018-11-27T10:24:17.912Z,45.00
2018-11-27T10:25:16.884Z,45.00
2018-11-27T10:26:18.436Z,50.63
2018-11-27T10:27:17.432Z,50.63
2018-11-27T10:28:16.852Z,50.63
2018-11-27T10:29:16.844Z,50.63
2018-11-27T10:30:16.844Z,45.00
2018-11-27T10:31:16.828Z,45.00
2018-11-27T10:32:16.900Z,45.00
2018-11-27T10:33:16.813Z,45.00
2018-11-27T10:34:16.814Z,45.00
2018-11-27T10:35:16.807Z,50.63
2018-11-27T10:36:16.791Z,50.63
2018-11-27T10:37:16.790Z,50.63
2018-11-27T10:38:16.837Z,56.25
2018-11-27T10:41:20.527Z,45.00
2018-11-27T10:42:08.433Z,45.00
2018-11-27T10:43:08.964Z,45.00
2018-11-27T10:46:14.382Z,50.63
2018-11-27T10:55:30.913Z,61.88
2018-11-27T10:56:26.607Z,73.13
2018-11-27T10:57:26.605Z,73.13
2018-11-27T10:58:26.563Z,73.13
2018-11-27T10:59:26.597Z,78.75
2018-11-27T11:00:26.539Z,78.75
2018-11-27T11:01:27.664Z,78.75
2018-11-27T11:02:26.480Z,78.75
2018-11-27T11:03:26.513Z,78.75
2018-11-27T11:14:13.914Z,50.63
2018-11-27T11:15:13.739Z,56.25
2018-11-27T11:17:07.913Z,56.25
2018-11-27T11:18:07.988Z,56.25
2018-11-27T11:19:07.857Z,56.25
2018-11-27T11:20:09.751Z,50.63
2018-11-27T11:21:09.691Z,50.63
2018-11-27T11:22:07.861Z,50.63
2018-11-27T11:23:08.060Z,56.25
2018-11-27T11:48:05.825Z,95.63
2018-11-27T11:55:58.418Z,50.63
2018-11-27T11:56:40.397Z,45.00
2018-11-27T11:59:33.670Z,45.00
2018-11-27T12:00:19.097Z,45.00
2018-11-27T12:01:19.014Z,45.00
2018-11-27T12:02:19.040Z,39.38
2018-11-27T12:03:18.991Z,39.38
2018-11-27T12:04:18.926Z,39.38
2018-11-27T12:05:18.917Z,39.38
2018-11-27T12:06:18.937Z,39.38
2018-11-27T12:07:18.905Z,39.38
2018-11-27T12:08:18.910Z,39.38
2018-11-27T12:09:18.891Z,39.38
2018-11-27T12:10:18.923Z,39.38
2018-11-27T12:11:18.878Z,39.38
2018-11-27T12:12:18.908Z,45.00
2018-11-27T12:13:18.875Z,45.00
2018-11-27T12:14:20.503Z,45.00
2018-11-27T12:15:18.872Z,45.00
2018-11-27T12:16:18.828Z,39.38
2018-11-27T12:17:18.831Z,33.75
2018-11-27T12:18:18.870Z,33.75
2018-11-27T12:19:18.805Z,33.75
2018-11-27T12:20:18.820Z,33.75
2018-11-27T12:21:18.853Z,28.13
2018-11-27T12:22:18.790Z,28.13
2018-11-27T12:23:20.643Z,28.13
2018-11-27T12:24:18.761Z,28.13
2018-11-27T12:25:26.411Z,28.13
2018-11-27T12:27:12.906Z,28.13
2018-11-27T12:28:15.083Z,28.13
2018-11-27T12:30:06.507Z,28.13
2018-11-27T12:31:06.449Z,33.75
2018-11-27T12:32:59.293Z,33.75
2018-11-27T12:33:59.381Z,33.75
2018-11-27T12:35:52.496Z,33.75
2018-11-27T12:36:59.600Z,39.38
2018-11-27T12:38:45.906Z,33.75
2018-11-27T12:39:46.005Z,33.75
2018-11-27T12:41:39.316Z,39.38
2018-11-27T12:42:39.248Z,39.38
2018-11-27T12:44:33.696Z,39.38
2018-11-27T12:45:33.386Z,39.38
2018-11-27T12:47:26.879Z,39.38
2018-11-27T12:48:26.803Z,39.38
2018-11-27T12:50:19.596Z,33.75
2018-11-27T12:51:19.727Z,33.75
2018-11-27T12:53:16.797Z,28.13
2018-11-27T12:55:27.191Z,28.13
2018-11-27T12:56:34.195Z,28.13
2018-11-27T12:58:19.829Z,33.75
2018-11-27T12:59:19.982Z,33.75
2018-11-27T13:01:13.004Z,39.38
2018-11-27T13:02:12.898Z,39.38
2018-11-27T13:03:13.319Z,39.38
2018-11-27T13:04:12.636Z,39.38
2018-11-27T13:05:12.600Z,33.75
2018-11-27T13:06:12.575Z,33.75
2018-11-27T13:07:12.565Z,28.13
2018-11-27T13:08:12.559Z,28.13
2018-11-27T13:09:12.554Z,28.13
2018-11-27T13:10:12.544Z,22.50
2018-11-27T13:11:12.535Z,22.50
2018-11-27T13:12:12.528Z,22.50
2018-11-27T13:13:12.519Z,22.50
2018-11-27T13:14:12.518Z,22.50
2018-11-27T13:15:12.514Z,22.50
2018-11-27T13:16:12.497Z,22.50
2018-11-27T13:17:12.486Z,22.50
2018-11-27T13:18:12.478Z,22.50
2018-11-27T13:19:12.471Z,22.50
2018-11-27T13:20:12.467Z,22.50
2018-11-27T13:21:12.451Z,22.50
2018-11-27T13:22:12.448Z,22.50
2018-11-27T13:23:12.449Z,22.50
2018-11-27T13:24:12.430Z,22.50
2018-11-27T13:25:12.422Z,22.50
2018-11-27T13:26:12.415Z,22.50
2018-11-27T13:27:12.425Z,28.13
2018-11-27T13:28:12.397Z,28.13
2018-11-27T13:29:12.389Z,28.13
2018-11-27T13:30:12.380Z,28.13
2018-11-27T13:31:12.373Z,28.13
2018-11-27T13:32:12.365Z,22.50
2018-11-27T13:33:12.356Z,22.50
2018-11-27T13:34:12.349Z,22.50
2018-11-27T13:35:12.342Z,22.50
2018-11-27T13:36:12.335Z,22.50
2018-11-27T13:37:12.322Z,16.88
2018-11-27T13:38:12.316Z,16.88
2018-11-27T13:39:12.309Z,16.88
2018-11-27T13:40:12.299Z,16.88
2018-11-27T13:41:12.291Z,16.88
2018-11-27T13:42:12.281Z,16.88
2018-11-27T13:43:12.274Z,16.88
2018-11-27T13:44:12.266Z,16.88
2018-11-27T13:45:12.264Z,16.88
2018-11-27T13:46:12.263Z,16.88
2018-11-27T13:47:12.241Z,16.88
2018-11-27T13:48:12.233Z,16.88
2018-11-27T13:49:12.234Z,16.88
2018-11-27T13:50:12.216Z,16.88
2018-11-27T13:51:12.207Z,16.88
2018-11-27T13:52:12.200Z,16.88
2018-11-27T13:53:12.211Z,16.88
2018-11-27T13:54:12.192Z,16.88
2018-11-27T13:55:12.176Z,16.88
2018-11-27T13:56:12.167Z,16.88
2018-11-27T13:57:12.163Z,16.88
2018-11-27T13:58:12.145Z,16.88
2018-11-27T13:59:12.150Z,16.88
2018-11-27T14:00:12.206Z,16.88
2018-11-27T14:01:12.127Z,16.88
2018-11-27T14:02:12.119Z,16.88
2018-11-27T14:03:20.346Z,16.88
2018-11-27T14:07:36.602Z,16.88
2018-11-27T14:08:03.910Z,16.88
2018-11-27T14:11:32.661Z,16.88
2018-11-27T14:12:32.475Z,16.88
2018-11-27T14:14:26.032Z,11.25
2018-11-27T14:15:25.857Z,11.25
2018-11-27T14:17:19.215Z,11.25
2018-11-27T14:18:19.167Z,11.25
2018-11-27T14:20:12.030Z,11.25
2018-11-27T14:21:11.969Z,11.25
2018-11-27T14:23:05.383Z,11.25
2018-11-27T14:24:05.354Z,11.25
2018-11-27T14:25:58.225Z,11.25
2018-11-27T14:26:58.163Z,11.25
2018-11-27T14:28:51.467Z,11.25
2018-11-27T14:29:51.381Z,11.25
2018-11-27T14:31:44.784Z,11.25
2018-11-27T14:32:44.758Z,11.25
2018-11-27T14:34:59.881Z,11.25
2018-11-27T14:35:46.764Z,5.63
2018-11-27T14:37:32.873Z,5.63
2018-11-27T14:38:39.947Z,5.63
2018-11-27T14:40:26.283Z,5.63
2018-11-27T14:41:26.063Z,5.63
2018-11-27T14:43:19.625Z,5.63
2018-11-27T14:44:19.595Z,5.63
2018-11-27T14:46:12.306Z,0.00
2018-11-27T14:47:12.276Z,0.00
2018-11-27T14:49:05.818Z,0.00
2018-11-27T14:50:12.862Z,0.00
2018-11-27T14:51:58.779Z,0.00
2018-11-27T14:52:58.592Z,0.00
2018-11-27T14:54:52.365Z,0.00